sensor_id;sensor_type;location;lat;lon;timestamp;P1;durP1;ratioP1;P2;durP2;ratioP2
22851;SDS011;11592;45.460;9.240;2023-03-21T00:00:40;76.68;;;41.97;;
22851;SDS011;11592;45.460;9.240;2023-03-21T00:03:07;68.90;;;41.00;;
22851;SDS011;11592;45.460;9.240;2023-03-21T00:05:38;73.72;;;41.20;;
22851;SDS011;11592;45.460;9.240;2023-03-21T00:08:15;76.03;;;41.78;;
22851;SDS011;11592;45.460;9.240;2023-03-21T00:10:41;76.13;;;42.33;;
22851;SDS011;11592;45.460;9.240;2023-03-21T00:13:12;80.50;;;41.67;;
22851;SDS011;11592;45.460;9.240;2023-03-21T00:15:40;75.15;;;42.13;;
22851;SDS011;11592;45.460;9.240;2023-03-21T00:18:39;73.75;;;42.50;;
22851;SDS011;11592;45.460;9.240;2023-03-21T00:21:09;79.60;;;42.10;;
22851;SDS011;11592;45.460;9.240;2023-03-21T00:23:58;73.60;;;41.17;;
22851;SDS011;11592;45.460;9.240;2023-03-21T00:26:26;77.63;;;43.60;;
22851;SDS011;11592;45.460;9.240;2023-03-21T00:28:53;74.38;;;44.13;;
22851;SDS011;11592;45.460;9.240;2023-03-21T00:31:19;77.53;;;42.05;;
22851;SDS011;11592;45.460;9.240;2023-03-21T00:33:46;77.53;;;42.97;;
22851;SDS011;11592;45.460;9.240;2023-03-21T00:36:13;78.43;;;42.40;;
22851;SDS011;11592;45.460;9.240;2023-03-21T00:38:41;76.25;;;42.42;;
22851;SDS011;11592;45.460;9.240;2023-03-21T00:41:09;76.95;;;42.83;;
22851;SDS011;11592;45.460;9.240;2023-03-21T00:43:56;79.32;;;41.95;;
22851;SDS011;11592;45.460;9.240;2023-03-21T00:46:23;86.95;;;43.53;;
22851;SDS011;11592;45.460;9.240;2023-03-21T00:48:55;79.45;;;42.17;;
22851;SDS011;11592;45.460;9.240;2023-03-21T00:51:22;82.10;;;43.60;;
22851;SDS011;11592;45.460;9.240;2023-03-21T00:53:53;79.55;;;42.67;;
22851;SDS011;11592;45.460;9.240;2023-03-21T00:56:21;73.95;;;42.83;;
22851;SDS011;11592;45.460;9.240;2023-03-21T00:58:48;80.50;;;42.42;;
22851;SDS011;11592;45.460;9.240;2023-03-21T01:01:16;80.97;;;44.08;;
22851;SDS011;11592;45.460;9.240;2023-03-21T01:03:43;84.43;;;42.78;;
22851;SDS011;11592;45.460;9.240;2023-03-21T01:06:13;72.85;;;42.58;;
22851;SDS011;11592;45.460;9.240;2023-03-21T01:08:44;81.65;;;44.90;;
22851;SDS011;11592;45.460;9.240;2023-03-21T01:11:19;81.25;;;43.75;;
22851;SDS011;11592;45.460;9.240;2023-03-21T01:13:48;84.93;;;44.67;;
22851;SDS011;11592;45.460;9.240;2023-03-21T01:16:35;81.20;;;42.90;;
22851;SDS011;11592;45.460;9.240;2023-03-21T01:19:03;77.40;;;44.58;;
22851;SDS011;11592;45.460;9.240;2023-03-21T01:21:39;80.32;;;44.17;;
22851;SDS011;11592;45.460;9.240;2023-03-21T01:24:06;76.88;;;41.90;;
22851;SDS011;11592;45.460;9.240;2023-03-21T01:26:33;78.68;;;43.88;;
22851;SDS011;11592;45.460;9.240;2023-03-21T01:29:03;76.80;;;42.70;;
22851;SDS011;11592;45.460;9.240;2023-03-21T01:31:30;79.80;;;43.28;;
22851;SDS011;11592;45.460;9.240;2023-03-21T01:33:57;79.60;;;43.65;;
22851;SDS011;11592;45.460;9.240;2023-03-21T01:36:24;79.70;;;43.10;;
22851;SDS011;11592;45.460;9.240;2023-03-21T01:38:52;81.63;;;42.08;;
22851;SDS011;11592;45.460;9.240;2023-03-21T01:43:48;80.07;;;42.58;;
22851;SDS011;11592;45.460;9.240;2023-03-21T01:46:26;74.07;;;41.38;;
22851;SDS011;11592;45.460;9.240;2023-03-21T01:49:30;79.47;;;42.22;;
22851;SDS011;11592;45.460;9.240;2023-03-21T01:54:42;79.15;;;41.55;;
22851;SDS011;11592;45.460;9.240;2023-03-21T01:57:14;85.15;;;42.97;;
22851;SDS011;11592;45.460;9.240;2023-03-21T01:59:47;78.95;;;42.33;;
22851;SDS011;11592;45.460;9.240;2023-03-21T02:02:18;74.78;;;41.45;;
22851;SDS011;11592;45.460;9.240;2023-03-21T02:04:49;82.63;;;43.35;;
22851;SDS011;11592;45.460;9.240;2023-03-21T02:07:26;73.97;;;40.50;;
22851;SDS011;11592;45.460;9.240;2023-03-21T02:09:54;85.25;;;44.53;;
22851;SDS011;11592;45.460;9.240;2023-03-21T02:12:24;74.53;;;41.38;;
22851;SDS011;11592;45.460;9.240;2023-03-21T02:14:51;79.93;;;44.00;;
22851;SDS011;11592;45.460;9.240;2023-03-21T02:17:27;79.90;;;42.90;;
22851;SDS011;11592;45.460;9.240;2023-03-21T02:27:55;79.13;;;42.38;;
22851;SDS011;11592;45.460;9.240;2023-03-21T02:33:40;80.13;;;44.35;;
22851;SDS011;11592;45.460;9.240;2023-03-21T02:41:56;81.78;;;44.65;;
22851;SDS011;11592;45.460;9.240;2023-03-21T02:49:55;78.82;;;45.78;;
22851;SDS011;11592;45.460;9.240;2023-03-21T02:52:29;84.15;;;44.05;;
22851;SDS011;11592;45.460;9.240;2023-03-21T02:55:06;80.80;;;45.95;;
22851;SDS011;11592;45.460;9.240;2023-03-21T02:57:40;86.88;;;46.42;;
22851;SDS011;11592;45.460;9.240;2023-03-21T03:00:09;76.60;;;43.17;;
22851;SDS011;11592;45.460;9.240;2023-03-21T03:02:43;85.45;;;44.92;;
22851;SDS011;11592;45.460;9.240;2023-03-21T03:05:11;86.80;;;46.53;;
22851;SDS011;11592;45.460;9.240;2023-03-21T03:13:51;84.57;;;45.50;;
22851;SDS011;11592;45.460;9.240;2023-03-21T03:16:22;83.80;;;44.88;;
22851;SDS011;11592;45.460;9.240;2023-03-21T03:18:56;83.78;;;45.42;;
22851;SDS011;11592;45.460;9.240;2023-03-21T03:21:31;82.55;;;44.38;;
22851;SDS011;11592;45.460;9.240;2023-03-21T03:26:38;84.07;;;46.30;;
22851;SDS011;11592;45.460;9.240;2023-03-21T03:29:12;85.78;;;45.92;;
22851;SDS011;11592;45.460;9.240;2023-03-21T03:31:46;83.20;;;46.15;;
22851;SDS011;11592;45.460;9.240;2023-03-21T03:34:22;83.53;;;45.83;;
22851;SDS011;11592;45.460;9.240;2023-03-21T03:36:56;83.80;;;45.03;;
22851;SDS011;11592;45.460;9.240;2023-03-21T03:39:35;89.43;;;47.25;;
22851;SDS011;11592;45.460;9.240;2023-03-21T03:42:08;84.82;;;46.03;;
22851;SDS011;11592;45.460;9.240;2023-03-21T03:44:53;84.70;;;45.95;;
22851;SDS011;11592;45.460;9.240;2023-03-21T03:47:23;80.68;;;45.20;;
22851;SDS011;11592;45.460;9.240;2023-03-21T03:52:47;88.88;;;47.20;;
22851;SDS011;11592;45.460;9.240;2023-03-21T03:55:22;81.05;;;45.30;;
22851;SDS011;11592;45.460;9.240;2023-03-21T03:57:52;89.38;;;47.50;;
22851;SDS011;11592;45.460;9.240;2023-03-21T04:00:20;85.05;;;47.72;;
22851;SDS011;11592;45.460;9.240;2023-03-21T04:02:47;85.65;;;46.30;;
22851;SDS011;11592;45.460;9.240;2023-03-21T04:05:14;91.82;;;47.00;;
22851;SDS011;11592;45.460;9.240;2023-03-21T04:07:46;87.32;;;47.25;;
22851;SDS011;11592;45.460;9.240;2023-03-21T04:10:16;98.65;;;50.08;;
22851;SDS011;11592;45.460;9.240;2023-03-21T04:12:43;87.05;;;47.70;;
22851;SDS011;11592;45.460;9.240;2023-03-21T04:15:10;91.22;;;48.47;;
22851;SDS011;11592;45.460;9.240;2023-03-21T04:17:37;87.20;;;47.58;;
22851;SDS011;11592;45.460;9.240;2023-03-21T04:20:05;91.40;;;48.17;;
22851;SDS011;11592;45.460;9.240;2023-03-21T04:22:41;79.78;;;46.10;;
22851;SDS011;11592;45.460;9.240;2023-03-21T04:25:08;91.15;;;46.22;;
22851;SDS011;11592;45.460;9.240;2023-03-21T04:27:35;94.30;;;49.08;;
22851;SDS011;11592;45.460;9.240;2023-03-21T04:30:02;95.82;;;49.55;;
22851;SDS011;11592;45.460;9.240;2023-03-21T04:32:31;89.05;;;47.88;;
22851;SDS011;11592;45.460;9.240;2023-03-21T04:34:59;91.40;;;50.47;;
22851;SDS011;11592;45.460;9.240;2023-03-21T04:37:26;93.82;;;49.65;;
22851;SDS011;11592;45.460;9.240;2023-03-21T04:39:53;95.55;;;50.15;;
22851;SDS011;11592;45.460;9.240;2023-03-21T04:42:20;97.00;;;48.55;;
22851;SDS011;11592;45.460;9.240;2023-03-21T04:44:47;88.32;;;47.22;;
22851;SDS011;11592;45.460;9.240;2023-03-21T04:47:14;80.55;;;45.08;;
22851;SDS011;11592;45.460;9.240;2023-03-21T04:49:42;94.45;;;49.70;;
22851;SDS011;11592;45.460;9.240;2023-03-21T04:52:09;91.28;;;48.33;;
22851;SDS011;11592;45.460;9.240;2023-03-21T04:54:36;86.07;;;46.95;;
22851;SDS011;11592;45.460;9.240;2023-03-21T04:57:02;91.55;;;48.25;;
22851;SDS011;11592;45.460;9.240;2023-03-21T04:59:30;91.65;;;46.78;;
22851;SDS011;11592;45.460;9.240;2023-03-21T05:01:56;89.55;;;49.08;;
22851;SDS011;11592;45.460;9.240;2023-03-21T05:04:24;94.80;;;50.92;;
22851;SDS011;11592;45.460;9.240;2023-03-21T05:06:53;97.05;;;49.40;;
22851;SDS011;11592;45.460;9.240;2023-03-21T05:09:21;88.25;;;50.95;;
22851;SDS011;11592;45.460;9.240;2023-03-21T05:11:48;88.10;;;48.33;;
22851;SDS011;11592;45.460;9.240;2023-03-21T05:14:17;95.03;;;50.38;;
22851;SDS011;11592;45.460;9.240;2023-03-21T05:16:46;93.18;;;50.10;;
22851;SDS011;11592;45.460;9.240;2023-03-21T05:19:19;94.13;;;48.72;;
22851;SDS011;11592;45.460;9.240;2023-03-21T05:21:48;88.38;;;48.63;;
22851;SDS011;11592;45.460;9.240;2023-03-21T05:24:19;93.25;;;49.95;;
22851;SDS011;11592;45.460;9.240;2023-03-21T05:26:47;95.40;;;49.17;;
22851;SDS011;11592;45.460;9.240;2023-03-21T05:29:18;96.50;;;49.75;;
22851;SDS011;11592;45.460;9.240;2023-03-21T05:31:45;95.25;;;50.30;;
22851;SDS011;11592;45.460;9.240;2023-03-21T05:34:12;98.43;;;51.05;;
22851;SDS011;11592;45.460;9.240;2023-03-21T05:36:39;92.57;;;49.58;;
22851;SDS011;11592;45.460;9.240;2023-03-21T05:39:06;102.22;;;51.55;;
22851;SDS011;11592;45.460;9.240;2023-03-21T05:41:32;94.53;;;50.05;;
22851;SDS011;11592;45.460;9.240;2023-03-21T05:43:59;96.47;;;50.50;;
22851;SDS011;11592;45.460;9.240;2023-03-21T05:46:26;96.95;;;52.17;;
22851;SDS011;11592;45.460;9.240;2023-03-21T05:48:53;96.57;;;50.70;;
22851;SDS011;11592;45.460;9.240;2023-03-21T05:51:20;96.75;;;51.45;;
22851;SDS011;11592;45.460;9.240;2023-03-21T05:53:46;96.60;;;51.40;;
22851;SDS011;11592;45.460;9.240;2023-03-21T05:56:14;96.10;;;51.47;;
22851;SDS011;11592;45.460;9.240;2023-03-21T05:58:41;99.90;;;52.08;;
22851;SDS011;11592;45.460;9.240;2023-03-21T06:01:08;94.38;;;51.53;;
22851;SDS011;11592;45.460;9.240;2023-03-21T06:03:35;102.95;;;52.83;;
22851;SDS011;11592;45.460;9.240;2023-03-21T06:06:02;97.75;;;49.88;;
22851;SDS011;11592;45.460;9.240;2023-03-21T06:08:29;103.53;;;51.80;;
22851;SDS011;11592;45.460;9.240;2023-03-21T06:10:57;109.30;;;53.30;;
22851;SDS011;11592;45.460;9.240;2023-03-21T06:13:24;103.97;;;51.72;;
22851;SDS011;11592;45.460;9.240;2023-03-21T06:15:51;97.72;;;51.83;;
22851;SDS011;11592;45.460;9.240;2023-03-21T06:18:17;110.57;;;54.80;;
22851;SDS011;11592;45.460;9.240;2023-03-21T06:20:44;100.75;;;51.72;;
22851;SDS011;11592;45.460;9.240;2023-03-21T06:23:11;96.03;;;50.55;;
22851;SDS011;11592;45.460;9.240;2023-03-21T06:25:38;97.07;;;50.90;;
22851;SDS011;11592;45.460;9.240;2023-03-21T06:28:05;103.85;;;52.25;;
22851;SDS011;11592;45.460;9.240;2023-03-21T06:30:32;99.75;;;50.92;;
22851;SDS011;11592;45.460;9.240;2023-03-21T06:32:59;102.57;;;53.83;;
22851;SDS011;11592;45.460;9.240;2023-03-21T06:35:26;105.70;;;54.90;;
22851;SDS011;11592;45.460;9.240;2023-03-21T06:37:52;106.55;;;54.35;;
22851;SDS011;11592;45.460;9.240;2023-03-21T06:40:19;102.05;;;50.85;;
22851;SDS011;11592;45.460;9.240;2023-03-21T06:42:46;99.30;;;51.25;;
22851;SDS011;11592;45.460;9.240;2023-03-21T06:45:13;105.07;;;53.47;;
22851;SDS011;11592;45.460;9.240;2023-03-21T06:47:40;95.80;;;50.85;;
22851;SDS011;11592;45.460;9.240;2023-03-21T06:50:07;105.18;;;53.08;;
22851;SDS011;11592;45.460;9.240;2023-03-21T06:52:37;102.32;;;53.63;;
22851;SDS011;11592;45.460;9.240;2023-03-21T06:55:04;107.22;;;54.92;;
22851;SDS011;11592;45.460;9.240;2023-03-21T06:57:31;111.00;;;56.53;;
22851;SDS011;11592;45.460;9.240;2023-03-21T06:59:57;113.55;;;57.67;;
22851;SDS011;11592;45.460;9.240;2023-03-21T07:02:24;107.75;;;57.75;;
22851;SDS011;11592;45.460;9.240;2023-03-21T07:04:51;109.70;;;58.72;;
22851;SDS011;11592;45.460;9.240;2023-03-21T07:07:19;126.25;;;60.20;;
22851;SDS011;11592;45.460;9.240;2023-03-21T07:09:51;105.35;;;57.47;;
22851;SDS011;11592;45.460;9.240;2023-03-21T07:12:18;107.38;;;57.42;;
22851;SDS011;11592;45.460;9.240;2023-03-21T07:14:44;105.75;;;56.47;;
22851;SDS011;11592;45.460;9.240;2023-03-21T07:17:11;109.60;;;57.92;;
22851;SDS011;11592;45.460;9.240;2023-03-21T07:19:38;113.97;;;57.72;;
22851;SDS011;11592;45.460;9.240;2023-03-21T07:22:05;111.45;;;59.28;;
22851;SDS011;11592;45.460;9.240;2023-03-21T07:24:31;113.78;;;59.88;;
22851;SDS011;11592;45.460;9.240;2023-03-21T07:26:58;107.47;;;56.90;;
22851;SDS011;11592;45.460;9.240;2023-03-21T07:29:25;108.80;;;59.80;;
22851;SDS011;11592;45.460;9.240;2023-03-21T07:31:52;117.53;;;61.05;;
22851;SDS011;11592;45.460;9.240;2023-03-21T07:34:19;117.10;;;62.33;;
22851;SDS011;11592;45.460;9.240;2023-03-21T07:36:46;103.68;;;57.28;;
22851;SDS011;11592;45.460;9.240;2023-03-21T07:39:12;115.40;;;59.85;;
22851;SDS011;11592;45.460;9.240;2023-03-21T07:41:39;107.63;;;58.80;;
22851;SDS011;11592;45.460;9.240;2023-03-21T07:44:06;106.32;;;59.10;;
22851;SDS011;11592;45.460;9.240;2023-03-21T07:46:33;117.65;;;58.92;;
22851;SDS011;11592;45.460;9.240;2023-03-21T07:48:59;117.82;;;59.88;;
22851;SDS011;11592;45.460;9.240;2023-03-21T07:51:26;124.28;;;63.50;;
22851;SDS011;11592;45.460;9.240;2023-03-21T07:53:53;124.53;;;62.90;;
22851;SDS011;11592;45.460;9.240;2023-03-21T07:56:20;113.93;;;62.65;;
22851;SDS011;11592;45.460;9.240;2023-03-21T07:58:47;116.32;;;59.88;;
22851;SDS011;11592;45.460;9.240;2023-03-21T08:01:13;113.35;;;61.83;;
22851;SDS011;11592;45.460;9.240;2023-03-21T08:03:40;115.05;;;63.58;;
22851;SDS011;11592;45.460;9.240;2023-03-21T08:06:08;116.53;;;61.97;;
22851;SDS011;11592;45.460;9.240;2023-03-21T08:08:36;117.00;;;63.63;;
22851;SDS011;11592;45.460;9.240;2023-03-21T08:11:02;120.35;;;64.35;;
22851;SDS011;11592;45.460;9.240;2023-03-21T08:13:30;129.10;;;66.85;;
22851;SDS011;11592;45.460;9.240;2023-03-21T08:15:58;119.05;;;65.82;;
22851;SDS011;11592;45.460;9.240;2023-03-21T08:18:25;118.30;;;63.20;;
22851;SDS011;11592;45.460;9.240;2023-03-21T08:20:52;117.00;;;64.22;;
22851;SDS011;11592;45.460;9.240;2023-03-21T08:23:20;123.00;;;64.57;;
22851;SDS011;11592;45.460;9.240;2023-03-21T08:25:55;117.85;;;63.30;;
22851;SDS011;11592;45.460;9.240;2023-03-21T08:28:22;121.15;;;63.65;;
22851;SDS011;11592;45.460;9.240;2023-03-21T08:30:49;125.25;;;65.75;;
22851;SDS011;11592;45.460;9.240;2023-03-21T08:33:16;122.55;;;63.50;;
22851;SDS011;11592;45.460;9.240;2023-03-21T08:35:44;124.45;;;66.25;;
22851;SDS011;11592;45.460;9.240;2023-03-21T08:38:12;116.57;;;65.38;;
22851;SDS011;11592;45.460;9.240;2023-03-21T08:40:39;124.55;;;66.35;;
22851;SDS011;11592;45.460;9.240;2023-03-21T08:43:06;121.40;;;65.10;;
22851;SDS011;11592;45.460;9.240;2023-03-21T08:45:33;117.50;;;66.18;;
22851;SDS011;11592;45.460;9.240;2023-03-21T08:48:00;120.90;;;67.05;;
22851;SDS011;11592;45.460;9.240;2023-03-21T08:50:27;113.60;;;64.40;;
22851;SDS011;11592;45.460;9.240;2023-03-21T08:52:56;111.25;;;62.88;;
22851;SDS011;11592;45.460;9.240;2023-03-21T08:55:23;122.63;;;67.45;;
22851;SDS011;11592;45.460;9.240;2023-03-21T08:57:50;122.80;;;66.13;;
22851;SDS011;11592;45.460;9.240;2023-03-21T09:00:17;114.55;;;66.15;;
22851;SDS011;11592;45.460;9.240;2023-03-21T09:02:46;117.28;;;64.40;;
22851;SDS011;11592;45.460;9.240;2023-03-21T09:05:16;113.07;;;63.58;;
22851;SDS011;11592;45.460;9.240;2023-03-21T09:07:44;115.82;;;64.03;;
22851;SDS011;11592;45.460;9.240;2023-03-21T09:10:16;117.25;;;64.38;;
22851;SDS011;11592;45.460;9.240;2023-03-21T09:12:47;108.20;;;61.42;;
22851;SDS011;11592;45.460;9.240;2023-03-21T09:15:15;112.07;;;63.28;;
22851;SDS011;11592;45.460;9.240;2023-03-21T09:17:45;115.65;;;63.78;;
22851;SDS011;11592;45.460;9.240;2023-03-21T09:20:18;117.00;;;64.65;;
22851;SDS011;11592;45.460;9.240;2023-03-21T09:22:51;110.85;;;62.10;;
22851;SDS011;11592;45.460;9.240;2023-03-21T09:25:18;115.95;;;63.13;;
22851;SDS011;11592;45.460;9.240;2023-03-21T09:27:46;114.72;;;63.05;;
22851;SDS011;11592;45.460;9.240;2023-03-21T09:30:17;123.15;;;64.68;;
22851;SDS011;11592;45.460;9.240;2023-03-21T09:32:45;116.63;;;62.95;;
22851;SDS011;11592;45.460;9.240;2023-03-21T09:35:15;115.45;;;66.43;;
22851;SDS011;11592;45.460;9.240;2023-03-21T09:37:44;116.65;;;62.38;;
22851;SDS011;11592;45.460;9.240;2023-03-21T09:40:19;110.68;;;61.13;;
22851;SDS011;11592;45.460;9.240;2023-03-21T09:43:02;105.30;;;60.50;;
22851;SDS011;11592;45.460;9.240;2023-03-21T09:48:03;108.68;;;60.03;;
22851;SDS011;11592;45.460;9.240;2023-03-21T09:50:33;99.53;;;57.88;;
22851;SDS011;11592;45.460;9.240;2023-03-21T09:53:08;106.05;;;58.15;;
22851;SDS011;11592;45.460;9.240;2023-03-21T09:55:42;92.72;;;55.63;;
22851;SDS011;11592;45.460;9.240;2023-03-21T10:00:47;105.07;;;59.88;;
22851;SDS011;11592;45.460;9.240;2023-03-21T10:03:22;107.10;;;60.58;;
22851;SDS011;11592;45.460;9.240;2023-03-21T10:05:55;110.50;;;62.25;;
22851;SDS011;11592;45.460;9.240;2023-03-21T10:08:36;99.45;;;59.55;;
22851;SDS011;11592;45.460;9.240;2023-03-21T10:13:40;102.88;;;58.30;;
22851;SDS011;11592;45.460;9.240;2023-03-21T10:16:27;103.53;;;58.60;;
22851;SDS011;11592;45.460;9.240;2023-03-21T10:19:09;96.95;;;56.60;;
22851;SDS011;11592;45.460;9.240;2023-03-21T10:21:39;93.50;;;54.05;;
22851;SDS011;11592;45.460;9.240;2023-03-21T10:24:30;93.38;;;55.03;;
22851;SDS011;11592;45.460;9.240;2023-03-21T10:26:58;96.85;;;55.78;;
22851;SDS011;11592;45.460;9.240;2023-03-21T10:29:27;83.53;;;49.95;;
22851;SDS011;11592;45.460;9.240;2023-03-21T10:32:10;76.20;;;44.63;;
22851;SDS011;11592;45.460;9.240;2023-03-21T10:34:50;76.57;;;44.03;;
22851;SDS011;11592;45.460;9.240;2023-03-21T10:37:21;72.28;;;43.90;;
22851;SDS011;11592;45.460;9.240;2023-03-21T10:39:49;79.15;;;45.28;;
22851;SDS011;11592;45.460;9.240;2023-03-21T10:42:35;69.80;;;40.75;;
22851;SDS011;11592;45.460;9.240;2023-03-21T10:45:02;69.03;;;41.35;;
22851;SDS011;11592;45.460;9.240;2023-03-21T10:47:41;65.57;;;40.58;;
22851;SDS011;11592;45.460;9.240;2023-03-21T10:50:13;60.85;;;37.75;;
22851;SDS011;11592;45.460;9.240;2023-03-21T10:52:49;59.00;;;37.17;;
22851;SDS011;11592;45.460;9.240;2023-03-21T10:55:23;57.70;;;37.10;;
22851;SDS011;11592;45.460;9.240;2023-03-21T10:58:06;68.95;;;42.08;;
22851;SDS011;11592;45.460;9.240;2023-03-21T11:00:39;69.30;;;43.55;;
22851;SDS011;11592;45.460;9.240;2023-03-21T11:03:42;55.50;;;34.25;;
22851;SDS011;11592;45.460;9.240;2023-03-21T11:08:41;45.15;;;28.65;;
22851;SDS011;11592;45.460;9.240;2023-03-21T11:11:27;37.28;;;25.45;;
22851;SDS011;11592;45.460;9.240;2023-03-21T11:19:30;44.00;;;28.08;;
22851;SDS011;11592;45.460;9.240;2023-03-21T11:21:58;51.80;;;32.78;;
22851;SDS011;11592;45.460;9.240;2023-03-21T11:24:31;52.45;;;31.95;;
22851;SDS011;11592;45.460;9.240;2023-03-21T11:27:03;50.70;;;32.20;;
22851;SDS011;11592;45.460;9.240;2023-03-21T11:29:53;53.15;;;33.38;;
22851;SDS011;11592;45.460;9.240;2023-03-21T11:34:51;49.92;;;31.80;;
22851;SDS011;11592;45.460;9.240;2023-03-21T11:37:30;53.83;;;31.58;;
22851;SDS011;11592;45.460;9.240;2023-03-21T11:40:05;55.28;;;35.10;;
22851;SDS011;11592;45.460;9.240;2023-03-21T11:42:39;52.05;;;32.80;;
22851;SDS011;11592;45.460;9.240;2023-03-21T11:45:13;50.00;;;32.45;;
22851;SDS011;11592;45.460;9.240;2023-03-21T11:47:43;47.58;;;28.73;;
22851;SDS011;11592;45.460;9.240;2023-03-21T11:52:47;48.13;;;30.98;;
22851;SDS011;11592;45.460;9.240;2023-03-21T11:55:34;50.65;;;29.08;;
22851;SDS011;11592;45.460;9.240;2023-03-21T11:58:08;41.60;;;29.02;;
22851;SDS011;11592;45.460;9.240;2023-03-21T12:00:47;47.78;;;30.75;;
22851;SDS011;11592;45.460;9.240;2023-03-21T12:03:43;42.78;;;28.33;;
22851;SDS011;11592;45.460;9.240;2023-03-21T12:06:22;45.95;;;30.60;;
22851;SDS011;11592;45.460;9.240;2023-03-21T12:09:07;36.58;;;25.67;;
22851;SDS011;11592;45.460;9.240;2023-03-21T12:12:00;44.53;;;28.58;;
22851;SDS011;11592;45.460;9.240;2023-03-21T12:25:10;32.75;;;23.50;;
22851;SDS011;11592;45.460;9.240;2023-03-21T12:30:58;32.10;;;22.52;;
22851;SDS011;11592;45.460;9.240;2023-03-21T12:41:43;27.90;;;21.67;;
22851;SDS011;11592;45.460;9.240;2023-03-21T12:44:19;23.13;;;17.65;;
22851;SDS011;11592;45.460;9.240;2023-03-21T12:51:46;24.55;;;17.65;;
22851;SDS011;11592;45.460;9.240;2023-03-21T12:54:30;22.10;;;15.63;;
22851;SDS011;11592;45.460;9.240;2023-03-21T12:57:09;20.15;;;15.93;;
22851;SDS011;11592;45.460;9.240;2023-03-21T12:59:48;25.02;;;16.05;;
22851;SDS011;11592;45.460;9.240;2023-03-21T13:05:27;20.98;;;15.57;;
22851;SDS011;11592;45.460;9.240;2023-03-21T13:10:37;19.05;;;15.00;;
22851;SDS011;11592;45.460;9.240;2023-03-21T13:24:02;20.20;;;14.50;;
22851;SDS011;11592;45.460;9.240;2023-03-21T13:26:48;25.05;;;18.08;;
22851;SDS011;11592;45.460;9.240;2023-03-21T13:29:25;23.75;;;16.75;;
22851;SDS011;11592;45.460;9.240;2023-03-21T13:31:54;19.73;;;13.60;;
22851;SDS011;11592;45.460;9.240;2023-03-21T13:34:24;26.83;;;17.98;;
22851;SDS011;11592;45.460;9.240;2023-03-21T13:36:52;25.42;;;14.88;;
22851;SDS011;11592;45.460;9.240;2023-03-21T13:39:25;21.83;;;16.00;;
22851;SDS011;11592;45.460;9.240;2023-03-21T13:41:59;21.98;;;15.02;;
22851;SDS011;11592;45.460;9.240;2023-03-21T13:44:54;24.13;;;14.57;;
22851;SDS011;11592;45.460;9.240;2023-03-21T13:50:21;18.20;;;13.65;;
22851;SDS011;11592;45.460;9.240;2023-03-21T13:55:38;29.33;;;20.30;;
22851;SDS011;11592;45.460;9.240;2023-03-21T14:01:35;26.02;;;18.80;;
22851;SDS011;11592;45.460;9.240;2023-03-21T14:03:45;28.55;;;20.75;;
22851;SDS011;11592;45.460;9.240;2023-03-21T14:06:13;30.95;;;19.88;;
22851;SDS011;11592;45.460;9.240;2023-03-21T14:08:44;29.38;;;17.02;;
22851;SDS011;11592;45.460;9.240;2023-03-21T14:11:14;25.35;;;15.93;;
22851;SDS011;11592;45.460;9.240;2023-03-21T14:13:44;26.95;;;15.55;;
22851;SDS011;11592;45.460;9.240;2023-03-21T14:16:17;22.15;;;13.40;;
22851;SDS011;11592;45.460;9.240;2023-03-21T14:18:55;24.15;;;12.00;;
22851;SDS011;11592;45.460;9.240;2023-03-21T14:21:28;25.20;;;15.75;;
22851;SDS011;11592;45.460;9.240;2023-03-21T14:23:57;17.63;;;12.38;;
22851;SDS011;11592;45.460;9.240;2023-03-21T14:26:50;18.13;;;11.02;;
22851;SDS011;11592;45.460;9.240;2023-03-21T14:29:32;21.40;;;11.48;;
22851;SDS011;11592;45.460;9.240;2023-03-21T14:32:00;20.58;;;12.02;;
22851;SDS011;11592;45.460;9.240;2023-03-21T14:34:28;19.08;;;12.15;;
22851;SDS011;11592;45.460;9.240;2023-03-21T14:36:57;34.58;;;16.70;;
22851;SDS011;11592;45.460;9.240;2023-03-21T14:39:28;28.73;;;15.55;;
22851;SDS011;11592;45.460;9.240;2023-03-21T14:42:01;21.90;;;14.48;;
22851;SDS011;11592;45.460;9.240;2023-03-21T14:44:37;24.40;;;15.30;;
22851;SDS011;11592;45.460;9.240;2023-03-21T14:49:48;21.73;;;14.27;;
22851;SDS011;11592;45.460;9.240;2023-03-21T14:52:21;25.30;;;14.65;;
22851;SDS011;11592;45.460;9.240;2023-03-21T14:54:50;27.63;;;12.80;;
22851;SDS011;11592;45.460;9.240;2023-03-21T14:57:20;24.00;;;14.45;;
22851;SDS011;11592;45.460;9.240;2023-03-21T14:59:50;23.52;;;15.20;;
22851;SDS011;11592;45.460;9.240;2023-03-21T15:02:22;19.92;;;12.45;;
22851;SDS011;11592;45.460;9.240;2023-03-21T15:04:53;19.25;;;10.82;;
22851;SDS011;11592;45.460;9.240;2023-03-21T15:07:29;18.85;;;11.60;;
22851;SDS011;11592;45.460;9.240;2023-03-21T15:09:59;22.65;;;13.57;;
22851;SDS011;11592;45.460;9.240;2023-03-21T15:12:34;20.45;;;12.48;;
22851;SDS011;11592;45.460;9.240;2023-03-21T15:15:00;21.67;;;12.45;;
22851;SDS011;11592;45.460;9.240;2023-03-21T15:17:28;20.45;;;11.52;;
22851;SDS011;11592;45.460;9.240;2023-03-21T15:19:55;24.70;;;15.10;;
22851;SDS011;11592;45.460;9.240;2023-03-21T15:25:04;24.15;;;12.43;;
22851;SDS011;11592;45.460;9.240;2023-03-21T15:27:36;21.02;;;11.68;;
22851;SDS011;11592;45.460;9.240;2023-03-21T15:30:26;20.70;;;12.57;;
22851;SDS011;11592;45.460;9.240;2023-03-21T15:32:55;23.95;;;12.15;;
22851;SDS011;11592;45.460;9.240;2023-03-21T15:35:48;21.52;;;13.40;;
22851;SDS011;11592;45.460;9.240;2023-03-21T15:41:14;22.25;;;12.55;;
22851;SDS011;11592;45.460;9.240;2023-03-21T15:43:44;19.38;;;11.52;;
22851;SDS011;11592;45.460;9.240;2023-03-21T15:51:39;18.90;;;12.05;;
22851;SDS011;11592;45.460;9.240;2023-03-21T15:54:30;23.88;;;14.25;;
22851;SDS011;11592;45.460;9.240;2023-03-21T15:56:59;21.45;;;11.70;;
22851;SDS011;11592;45.460;9.240;2023-03-21T15:59:32;21.80;;;11.50;;
22851;SDS011;11592;45.460;9.240;2023-03-21T16:02:01;22.17;;;12.55;;
22851;SDS011;11592;45.460;9.240;2023-03-21T16:04:29;21.27;;;12.63;;
22851;SDS011;11592;45.460;9.240;2023-03-21T16:07:00;23.02;;;12.50;;
22851;SDS011;11592;45.460;9.240;2023-03-21T16:09:47;22.88;;;12.95;;
22851;SDS011;11592;45.460;9.240;2023-03-21T16:12:14;19.42;;;11.82;;
22851;SDS011;11592;45.460;9.240;2023-03-21T16:14:44;22.00;;;14.38;;
22851;SDS011;11592;45.460;9.240;2023-03-21T16:17:31;26.50;;;13.48;;
22851;SDS011;11592;45.460;9.240;2023-03-21T16:20:08;26.40;;;13.98;;
22851;SDS011;11592;45.460;9.240;2023-03-21T16:22:57;28.48;;;15.10;;
22851;SDS011;11592;45.460;9.240;2023-03-21T16:25:24;30.50;;;17.48;;
22851;SDS011;11592;45.460;9.240;2023-03-21T16:27:52;26.13;;;14.52;;
22851;SDS011;11592;45.460;9.240;2023-03-21T16:30:19;30.52;;;17.02;;
22851;SDS011;11592;45.460;9.240;2023-03-21T16:32:46;25.58;;;15.25;;
22851;SDS011;11592;45.460;9.240;2023-03-21T16:35:15;25.85;;;15.52;;
22851;SDS011;11592;45.460;9.240;2023-03-21T16:37:43;27.38;;;15.93;;
22851;SDS011;11592;45.460;9.240;2023-03-21T16:40:29;37.88;;;17.63;;
22851;SDS011;11592;45.460;9.240;2023-03-21T16:43:02;27.40;;;15.35;;
22851;SDS011;11592;45.460;9.240;2023-03-21T16:45:29;31.05;;;13.82;;
22851;SDS011;11592;45.460;9.240;2023-03-21T16:47:56;42.15;;;17.02;;